aviador You're here:

LFOA Decoded Metar

AVORD in FRANCE
Report Time2018-01-19 05:00:00
UTC Time2018-01-19 05:26:56
Flight Rules mvfr MVFR
Wind250° at 06 kt
W.Decomp.*RWY 24: 5.9 kt HW 1.0 kt RCW
W.Rank250° ranks 1
Current wind is below 250° avg. (9.4)
Visibility9999 m
Phenomena:Rain
Clouds:N/A
Ceiling1,200 ft
Temp03°C (ISA -11)
Dew Point03°C (100% RH)
AAT-0.7°C
QNH1015 hPa
Density Alt-689 ft
Elevation587 ft
Report Wrong Elevation
Raw Report
LFOA 190500Z AUTO 25006KT CAVOK 03/03 Q1015 TEMPO 4000 RA
BKN012=

Extra information for LFOA:More info

Metar Taf Metar & Taf Last 4 Metars F.Rules Stats Wind Profile Meteogram Temp Stats Airport Information Weather charts Add Link Nearby VenuesMetar ALERT Operation Metar Decoded Social comments